createdAt,value
2023-05-17T00:02:02.289Z,2.03
2023-05-17T00:04:29.221Z,2.40
2023-05-17T00:06:56.041Z,2.05
2023-05-17T00:09:22.867Z,2.25
2023-05-17T00:11:49.737Z,2.47
2023-05-17T00:14:16.658Z,2.58
2023-05-17T00:16:43.510Z,3.17
2023-05-17T00:19:10.565Z,2.42
2023-05-17T00:21:37.984Z,2.67
2023-05-17T00:24:05.246Z,2.00
2023-05-17T00:26:34.013Z,2.40
2023-05-17T00:29:01.121Z,2.55
2023-05-17T00:31:28.039Z,2.45
2023-05-17T00:33:54.940Z,2.25
2023-05-17T00:36:21.793Z,2.08
2023-05-17T00:38:48.669Z,2.65
2023-05-17T00:41:15.564Z,2.42
2023-05-17T00:43:42.373Z,2.55
2023-05-17T00:46:09.164Z,2.88
2023-05-17T00:48:36.278Z,2.60
2023-05-17T00:51:03.182Z,2.50
2023-05-17T00:53:30.483Z,2.47
2023-05-17T00:55:57.395Z,1.90
2023-05-17T00:58:31.654Z,2.13
2023-05-17T01:03:26.557Z,2.50
2023-05-17T01:05:53.591Z,2.20
2023-05-17T01:08:21.016Z,2.83
2023-05-17T01:11:18.886Z,2.13
2023-05-17T01:14:29.097Z,2.13
2023-05-17T01:17:08.178Z,2.67
2023-05-17T01:19:58.598Z,2.15
2023-05-17T01:23:21.992Z,2.65
2023-05-17T01:26:02.436Z,2.22
2023-05-17T01:28:31.925Z,1.95
2023-05-17T01:31:04.471Z,2.65
2023-05-17T01:33:34.835Z,2.67
2023-05-17T01:36:01.795Z,2.15
2023-05-17T01:38:28.664Z,2.80
2023-05-17T01:41:18.239Z,3.00
2023-05-17T01:44:01.409Z,2.63
2023-05-17T01:46:41.826Z,2.50
2023-05-17T01:49:30.420Z,2.50
2023-05-17T01:52:17.329Z,2.47
2023-05-17T01:54:54.618Z,2.58
2023-05-17T01:57:29.630Z,2.90
2023-05-17T02:00:06.338Z,2.53
2023-05-17T02:02:33.232Z,2.80
2023-05-17T02:05:00.168Z,3.17
2023-05-17T02:07:27.062Z,2.92
2023-05-17T02:09:53.871Z,2.58
2023-05-17T02:12:20.834Z,2.38
2023-05-17T02:14:47.747Z,3.70
2023-05-17T02:17:14.769Z,3.15
2023-05-17T02:19:41.587Z,3.10
2023-05-17T02:22:08.391Z,3.10
2023-05-17T02:24:35.255Z,2.88
2023-05-17T02:27:03.617Z,3.40
2023-05-17T02:29:30.849Z,2.75
2023-05-17T02:31:57.707Z,3.47
2023-05-17T02:34:24.569Z,3.10
2023-05-17T02:36:55.421Z,3.03
2023-05-17T02:39:22.256Z,2.72
2023-05-17T02:41:49.076Z,2.83
2023-05-17T02:44:15.959Z,3.08
2023-05-17T02:46:42.843Z,3.05
2023-05-17T02:49:09.654Z,3.63
2023-05-17T02:51:39.475Z,3.45
2023-05-17T02:54:06.347Z,2.70
2023-05-17T02:56:33.277Z,3.28
2023-05-17T02:59:01.301Z,3.40
2023-05-17T03:01:28.319Z,3.00
2023-05-17T03:03:55.344Z,3.25
2023-05-17T03:06:22.417Z,2.38
2023-05-17T03:08:49.336Z,3.58
2023-05-17T03:11:16.156Z,2.72
2023-05-17T03:13:43.063Z,3.42
2023-05-17T03:16:10.032Z,2.90
2023-05-17T03:18:36.999Z,3.90
2023-05-17T03:21:04.050Z,3.25
2023-05-17T03:23:30.869Z,3.72
2023-05-17T03:25:57.731Z,3.47
2023-05-17T03:28:24.634Z,3.08
2023-05-17T03:30:51.880Z,3.75
2023-05-17T03:33:19.468Z,3.60
2023-05-17T03:35:47.002Z,3.67
2023-05-17T03:38:13.897Z,4.07
2023-05-17T03:40:41.408Z,4.38
2023-05-17T03:43:08.274Z,2.92
2023-05-17T03:45:35.105Z,3.35
2023-05-17T03:48:02.011Z,3.60
2023-05-17T03:50:29.803Z,3.03
2023-05-17T03:52:56.620Z,3.63
2023-05-17T03:55:23.468Z,3.08
2023-05-17T03:57:50.322Z,3.60
2023-05-17T04:00:21.743Z,3.63
2023-05-17T04:02:50.398Z,3.72
2023-05-17T04:05:18.562Z,3.35
2023-05-17T04:07:45.617Z,4.00
2023-05-17T04:10:12.429Z,4.30
2023-05-17T04:12:39.285Z,4.07
2023-05-17T04:15:06.971Z,4.00
2023-05-17T04:17:33.848Z,3.65
2023-05-17T04:20:00.729Z,3.40
2023-05-17T04:22:27.535Z,4.53
2023-05-17T04:24:54.388Z,3.90
2023-05-17T04:27:22.044Z,4.47
2023-05-17T04:29:48.866Z,3.13
2023-05-17T04:32:16.563Z,3.50
2023-05-17T04:34:43.392Z,3.13
2023-05-17T04:37:10.289Z,3.53
2023-05-17T04:39:37.212Z,3.78
2023-05-17T04:42:04.293Z,3.28
2023-05-17T04:44:31.118Z,3.85
2023-05-17T04:46:57.905Z,3.53
2023-05-17T04:49:25.188Z,4.07
2023-05-17T04:51:52.566Z,3.13
2023-05-17T04:54:19.496Z,3.70
2023-05-17T04:56:46.294Z,4.15
2023-05-17T04:59:13.081Z,6.40
2023-05-17T05:01:39.929Z,4.53
2023-05-17T05:04:07.186Z,5.13
2023-05-17T05:06:34.966Z,5.10
2023-05-17T05:09:03.533Z,5.85
2023-05-17T05:11:31.817Z,3.13
2023-05-17T05:13:58.690Z,4.13
2023-05-17T05:16:25.583Z,3.75
2023-05-17T05:18:52.506Z,3.65
2023-05-17T05:21:19.532Z,2.83
2023-05-17T05:23:46.365Z,3.53
2023-05-17T05:26:13.185Z,4.20
2023-05-17T05:28:40.116Z,3.42
2023-05-17T05:31:06.921Z,3.20
2023-05-17T05:33:33.841Z,3.35
2023-05-17T05:36:00.761Z,2.67
2023-05-17T05:38:27.629Z,2.65
2023-05-17T05:40:54.452Z,2.85
2023-05-17T05:43:21.340Z,3.33
2023-05-17T05:45:48.197Z,4.55
2023-05-17T05:48:15.436Z,2.88
2023-05-17T05:50:44.153Z,3.08
2023-05-17T05:53:18.692Z,4.10
2023-05-17T05:55:46.603Z,3.20
2023-05-17T05:58:13.464Z,3.17
2023-05-17T06:00:40.312Z,2.85
2023-05-17T06:03:07.216Z,3.65
2023-05-17T06:05:34.222Z,2.08
2023-05-17T06:08:01.063Z,2.92
2023-05-17T06:10:28.232Z,2.67
2023-05-17T06:12:55.284Z,3.58
2023-05-17T06:15:24.348Z,2.25
2023-05-17T06:17:51.294Z,3.20
2023-05-17T06:20:18.312Z,4.38
2023-05-17T06:22:45.228Z,2.90
2023-05-17T06:25:12.081Z,2.60
2023-05-17T06:27:39.206Z,3.00
2023-05-17T06:30:07.560Z,2.28
2023-05-17T06:32:35.092Z,1.95
2023-05-17T06:35:02.342Z,1.80
2023-05-17T06:37:29.170Z,1.52
2023-05-17T06:40:15.062Z,1.63
2023-05-17T06:42:43.190Z,2.22
2023-05-17T06:45:11.690Z,2.65
2023-05-17T06:47:38.618Z,1.80
2023-05-17T06:50:07.321Z,1.98
2023-05-17T06:52:34.979Z,2.20
2023-05-17T06:55:01.860Z,2.10
2023-05-17T06:57:28.725Z,3.72
2023-05-17T06:59:55.547Z,1.75
2023-05-17T07:02:22.574Z,2.53
2023-05-17T07:04:49.423Z,1.90
2023-05-17T07:07:16.316Z,1.52
2023-05-17T07:09:43.177Z,1.95
2023-05-17T07:12:10.047Z,2.13
2023-05-17T07:14:36.909Z,1.98
2023-05-17T07:17:03.758Z,2.22
2023-05-17T07:19:32.977Z,2.42
2023-05-17T07:21:59.899Z,2.30
2023-05-17T07:24:26.718Z,1.60
2023-05-17T07:26:53.598Z,2.22
2023-05-17T07:29:20.486Z,1.40
2023-05-17T07:31:47.356Z,1.98
2023-05-17T07:34:16.365Z,3.17
2023-05-17T07:36:43.265Z,2.38
2023-05-17T07:39:10.197Z,2.00
2023-05-17T07:41:37.329Z,2.28
2023-05-17T07:44:04.156Z,2.28
2023-05-17T07:46:31.044Z,1.70
2023-05-17T07:48:59.004Z,2.67
2023-05-17T07:51:26.316Z,1.70
2023-05-17T07:53:53.213Z,3.08
2023-05-17T07:56:20.324Z,2.28
2023-05-17T07:58:47.240Z,2.72
2023-05-17T08:01:14.282Z,2.20
2023-05-17T08:03:47.738Z,2.00
2023-05-17T08:06:18.316Z,2.38
2023-05-17T08:08:45.247Z,2.08
2023-05-17T08:11:13.200Z,2.45
2023-05-17T08:13:40.140Z,2.08
2023-05-17T08:16:13.739Z,1.88
2023-05-17T08:18:43.434Z,2.00
2023-05-17T08:21:11.478Z,2.05
2023-05-17T08:23:39.034Z,2.53
2023-05-17T08:26:06.177Z,2.10
2023-05-17T08:28:32.994Z,2.20
2023-05-17T08:30:59.847Z,1.95
2023-05-17T08:33:27.487Z,2.60
2023-05-17T08:35:55.392Z,2.10
2023-05-17T08:38:22.636Z,3.35
2023-05-17T08:40:56.560Z,2.22
2023-05-17T08:43:25.983Z,1.85
2023-05-17T08:45:57.491Z,2.28
2023-05-17T08:48:31.013Z,2.30
2023-05-17T08:50:58.322Z,1.65
2023-05-17T08:53:25.605Z,1.95
2023-05-17T08:55:58.937Z,2.13
2023-05-17T08:58:52.144Z,2.17
2023-05-17T09:01:24.393Z,1.92
2023-05-17T09:03:52.770Z,2.05
2023-05-17T09:06:23.946Z,2.30
2023-05-17T09:08:55.115Z,1.55
2023-05-17T09:11:32.884Z,1.90
2023-05-17T09:14:01.920Z,1.95
2023-05-17T09:16:30.395Z,1.90
2023-05-17T09:18:58.739Z,2.80
2023-05-17T09:21:27.310Z,1.65
2023-05-17T09:24:05.498Z,2.55
2023-05-17T09:26:46.804Z,1.88
2023-05-17T09:29:16.412Z,2.03
2023-05-17T09:31:44.753Z,2.10
2023-05-17T09:34:12.291Z,2.45
2023-05-17T09:36:43.903Z,1.83
2023-05-17T09:39:12.856Z,1.83
2023-05-17T09:41:48.262Z,2.33
2023-05-17T09:44:16.399Z,1.75
2023-05-17T09:46:47.794Z,1.95
2023-05-17T09:49:16.719Z,2.03
2023-05-17T09:51:46.878Z,1.73
2023-05-17T09:54:14.185Z,1.92
2023-05-17T09:56:41.750Z,2.42
2023-05-17T09:59:13.466Z,2.08
2023-05-17T10:01:45.617Z,1.50
2023-05-17T10:04:13.875Z,1.98
2023-05-17T10:06:48.552Z,2.00
2023-05-17T10:09:21.913Z,2.17
2023-05-17T10:11:51.054Z,2.30
2023-05-17T10:14:25.516Z,1.80
2023-05-17T10:16:53.595Z,3.47
2023-05-17T10:19:21.594Z,2.33
2023-05-17T10:21:50.926Z,2.40
2023-05-17T10:24:20.261Z,1.55
2023-05-17T10:26:51.140Z,2.00
2023-05-17T10:29:20.954Z,2.50
2023-05-17T10:31:52.868Z,2.50
2023-05-17T10:34:20.753Z,1.73
2023-05-17T10:36:50.034Z,2.65
2023-05-17T10:39:17.140Z,1.70
2023-05-17T10:41:46.669Z,1.70
2023-05-17T10:44:16.750Z,2.50
2023-05-17T10:46:56.385Z,1.92
2023-05-17T10:49:30.875Z,1.95
2023-05-17T10:51:59.721Z,2.67
2023-05-17T10:54:40.090Z,2.72
2023-05-17T10:57:09.726Z,2.38
2023-05-17T10:59:36.637Z,2.10
2023-05-17T11:02:09.970Z,2.22
2023-05-17T11:04:38.354Z,1.63
2023-05-17T11:07:28.051Z,1.95
2023-05-17T11:10:05.796Z,2.38
2023-05-17T11:12:40.471Z,2.22
2023-05-17T11:15:12.118Z,2.30
2023-05-17T11:17:51.909Z,1.95
2023-05-17T11:20:28.211Z,1.58
2023-05-17T11:23:05.030Z,1.55
2023-05-17T11:25:32.929Z,2.42
2023-05-17T11:28:00.139Z,1.92
2023-05-17T11:30:34.056Z,1.85
2023-05-17T11:33:17.247Z,1.27
2023-05-17T11:35:54.714Z,2.08
2023-05-17T11:38:30.434Z,1.75
2023-05-17T11:40:57.875Z,1.58
2023-05-17T11:43:28.574Z,2.30
2023-05-17T11:45:57.990Z,2.10
2023-05-17T11:48:26.449Z,1.15
2023-05-17T11:50:56.375Z,1.60
2023-05-17T11:53:25.372Z,1.30
2023-05-17T11:55:53.336Z,1.33
2023-05-17T11:58:25.817Z,1.42
2023-05-17T12:00:55.616Z,1.15
2023-05-17T12:03:30.789Z,1.42
2023-05-17T12:06:15.820Z,1.58
2023-05-17T12:08:47.207Z,1.50
2023-05-17T12:11:18.802Z,1.30
2023-05-17T12:13:46.866Z,1.65
2023-05-17T12:16:18.033Z,1.65
2023-05-17T12:18:49.606Z,2.35
2023-05-17T12:21:18.220Z,1.00
2023-05-17T12:23:50.904Z,2.10
2023-05-17T12:26:24.278Z,1.38
2023-05-17T12:29:01.226Z,2.65
2023-05-17T12:31:35.626Z,1.75
2023-05-17T12:36:33.377Z,1.25
2023-05-17T12:39:01.649Z,1.63
2023-05-17T12:41:29.618Z,1.50
2023-05-17T12:44:06.284Z,1.60
2023-05-17T12:49:10.941Z,2.17
2023-05-17T12:51:44.934Z,1.33
2023-05-17T12:54:13.861Z,1.17
2023-05-17T12:56:46.735Z,1.30
2023-05-17T12:59:20.772Z,1.40
2023-05-17T13:01:53.774Z,1.40
2023-05-17T13:04:29.257Z,1.42
2023-05-17T13:07:02.273Z,1.45
2023-05-17T13:09:31.530Z,2.03
2023-05-17T13:12:01.370Z,1.55
2023-05-17T13:14:46.910Z,1.83
2023-05-17T13:17:25.824Z,1.90
2023-05-17T13:19:53.546Z,1.38
2023-05-17T13:22:20.408Z,2.15
2023-05-17T13:24:47.442Z,2.20
2023-05-17T13:27:14.380Z,1.65
2023-05-17T13:29:43.095Z,1.48
2023-05-17T13:32:13.814Z,1.27
2023-05-17T13:34:43.756Z,1.15
2023-05-17T13:37:12.481Z,0.90
2023-05-17T13:39:40.873Z,1.40
2023-05-17T13:42:07.873Z,1.52
2023-05-17T13:44:34.723Z,1.38
2023-05-17T13:47:04.602Z,1.50
2023-05-17T13:49:31.544Z,1.23
2023-05-17T13:51:58.408Z,1.50
2023-05-17T13:54:25.396Z,1.40
2023-05-17T13:56:52.227Z,1.65
2023-05-17T13:59:19.152Z,1.63
2023-05-17T14:01:46.099Z,1.17
2023-05-17T14:04:13.279Z,1.05
2023-05-17T14:06:41.869Z,1.80
2023-05-17T14:09:08.673Z,1.48
2023-05-17T14:11:35.585Z,1.50
2023-05-17T14:14:04.124Z,1.60
2023-05-17T14:16:31.856Z,1.40
2023-05-17T14:19:00.356Z,2.03
2023-05-17T14:21:28.848Z,1.63
2023-05-17T14:23:58.892Z,1.30
2023-05-17T14:26:26.483Z,1.33
2023-05-17T14:28:53.657Z,1.70
2023-05-17T14:31:20.635Z,1.05
2023-05-17T14:33:47.618Z,1.45
2023-05-17T14:36:14.571Z,1.30
2023-05-17T14:38:41.530Z,1.80
2023-05-17T14:41:08.411Z,1.95
2023-05-17T14:43:35.433Z,1.77
2023-05-17T14:46:02.326Z,1.85
2023-05-17T14:48:30.283Z,1.88
2023-05-17T14:50:57.205Z,1.70
2023-05-17T14:53:28.902Z,1.63
2023-05-17T14:55:59.412Z,1.35
2023-05-17T14:58:29.579Z,2.17
2023-05-17T15:01:05.390Z,1.67
2023-05-17T15:03:34.176Z,1.73
2023-05-17T15:06:03.276Z,1.50
2023-05-17T15:08:32.254Z,1.90
2023-05-17T15:10:59.261Z,2.00
2023-05-17T15:13:26.723Z,1.55
2023-05-17T15:15:53.872Z,2.10
2023-05-17T15:18:20.831Z,1.45
2023-05-17T15:20:48.971Z,1.80
2023-05-17T15:23:16.177Z,1.75
2023-05-17T15:25:45.467Z,1.67
2023-05-17T15:28:12.408Z,1.50
2023-05-17T15:30:41.228Z,1.52
2023-05-17T15:33:08.875Z,1.33
2023-05-17T15:35:41.256Z,1.70
2023-05-17T15:38:08.192Z,1.20
2023-05-17T15:40:35.189Z,1.65
2023-05-17T15:43:02.521Z,1.42
2023-05-17T15:45:29.722Z,1.45
2023-05-17T15:47:57.159Z,1.17
2023-05-17T15:50:24.112Z,1.75
2023-05-17T15:52:51.100Z,2.03
2023-05-17T15:55:17.920Z,1.10
2023-05-17T15:57:44.813Z,1.30
2023-05-17T16:00:12.357Z,1.23
2023-05-17T16:02:41.763Z,1.90
2023-05-17T16:05:09.052Z,1.88
2023-05-17T16:07:39.021Z,1.55
2023-05-17T16:10:06.595Z,1.35
2023-05-17T16:12:33.502Z,1.75
2023-05-17T16:15:00.503Z,1.58
2023-05-17T16:17:27.655Z,1.70
2023-05-17T16:19:54.580Z,1.40
2023-05-17T16:22:21.588Z,1.67
2023-05-17T16:24:53.702Z,1.60
2023-05-17T16:27:20.525Z,1.40
2023-05-17T16:29:47.409Z,2.13
2023-05-17T16:32:14.269Z,1.77
2023-05-17T16:34:41.267Z,1.55
2023-05-17T16:37:08.109Z,1.67
2023-05-17T16:39:34.919Z,1.45
2023-05-17T16:42:01.912Z,1.60
2023-05-17T16:44:28.761Z,1.40
2023-05-17T16:46:55.631Z,1.50
2023-05-17T16:49:22.813Z,1.67
2023-05-17T16:51:51.801Z,1.08
2023-05-17T16:54:18.664Z,1.48
2023-05-17T16:56:45.724Z,1.65
2023-05-17T16:59:13.004Z,1.48
2023-05-17T17:01:40.079Z,1.63
2023-05-17T17:04:07.049Z,2.00
2023-05-17T17:06:34.034Z,1.70
2023-05-17T17:09:04.910Z,2.05
2023-05-17T17:11:33.225Z,1.52
2023-05-17T17:14:00.586Z,1.33
2023-05-17T17:16:27.881Z,1.30
2023-05-17T17:18:55.018Z,1.90
2023-05-17T17:21:21.871Z,2.05
2023-05-17T17:23:48.680Z,1.45
2023-05-17T17:26:16.039Z,1.77
2023-05-17T17:28:43.144Z,2.10
2023-05-17T17:31:10.480Z,1.60
2023-05-17T17:33:37.421Z,2.00
2023-05-17T17:36:04.547Z,1.48
2023-05-17T17:38:31.392Z,1.70
2023-05-17T17:40:58.271Z,2.28
2023-05-17T17:43:25.107Z,1.77
2023-05-17T17:45:51.946Z,1.42
2023-05-17T17:48:18.784Z,2.10
2023-05-17T17:50:45.693Z,1.35
2023-05-17T17:53:12.505Z,1.90
2023-05-17T17:55:39.336Z,2.10
2023-05-17T17:58:06.383Z,1.65
2023-05-17T18:00:33.202Z,1.38
2023-05-17T18:03:00.193Z,1.38
2023-05-17T18:05:27.183Z,1.73
2023-05-17T18:07:54.242Z,2.35
2023-05-17T18:10:21.253Z,1.67
2023-05-17T18:12:50.226Z,2.03
2023-05-17T18:15:18.408Z,1.70
2023-05-17T18:17:45.524Z,1.60
2023-05-17T18:20:12.419Z,1.85
2023-05-17T18:22:39.241Z,1.30
2023-05-17T18:25:06.567Z,1.40
2023-05-17T18:27:33.457Z,1.42
2023-05-17T18:30:00.629Z,1.33
2023-05-17T18:32:27.589Z,1.40
2023-05-17T18:34:55.057Z,2.15
2023-05-17T18:37:21.973Z,1.88
2023-05-17T18:39:48.838Z,1.58
2023-05-17T18:42:15.652Z,2.42
2023-05-17T18:44:42.522Z,1.38
2023-05-17T18:47:09.385Z,1.92
2023-05-17T18:49:37.236Z,1.90
2023-05-17T18:52:04.277Z,2.22
2023-05-17T18:54:31.225Z,1.55
2023-05-17T18:56:58.024Z,2.08
2023-05-17T18:59:24.823Z,1.83
2023-05-17T19:01:51.724Z,2.20
2023-05-17T19:04:18.572Z,1.80
2023-05-17T19:06:45.506Z,2.22
2023-05-17T19:09:12.455Z,2.20
2023-05-17T19:11:39.506Z,1.95
2023-05-17T19:14:06.387Z,2.80
2023-05-17T19:16:33.220Z,1.50
2023-05-17T19:19:00.122Z,1.88
2023-05-17T19:21:27.480Z,1.83
2023-05-17T19:23:54.324Z,1.70
2023-05-17T19:26:21.808Z,2.45
2023-05-17T19:28:48.682Z,1.80
2023-05-17T19:31:15.536Z,1.88
2023-05-17T19:33:42.422Z,1.80
2023-05-17T19:36:09.224Z,1.83
2023-05-17T19:38:36.162Z,1.70
2023-05-17T19:41:02.992Z,1.40
2023-05-17T19:43:29.806Z,1.67
2023-05-17T19:45:56.702Z,2.20
2023-05-17T19:48:24.288Z,2.03
2023-05-17T19:50:51.485Z,1.80
2023-05-17T19:53:18.314Z,1.58
2023-05-17T19:55:45.314Z,1.83
2023-05-17T19:58:12.180Z,2.28
2023-05-17T20:00:39.103Z,2.15
2023-05-17T20:03:06.019Z,2.00
2023-05-17T20:05:33.095Z,2.05
2023-05-17T20:08:02.499Z,2.60
2023-05-17T20:10:32.646Z,1.80
2023-05-17T20:13:02.911Z,1.52
2023-05-17T20:15:29.711Z,1.85
2023-05-17T20:17:56.586Z,1.90
2023-05-17T20:20:23.782Z,1.98
2023-05-17T20:22:50.635Z,2.10
2023-05-17T20:25:17.433Z,1.65
2023-05-17T20:27:44.419Z,2.38
2023-05-17T20:30:11.828Z,2.08
2023-05-17T20:32:38.619Z,1.95
2023-05-17T20:35:06.270Z,1.98
2023-05-17T20:37:33.766Z,1.90
2023-05-17T20:40:00.644Z,1.85
2023-05-17T20:42:28.876Z,1.85
2023-05-17T20:44:57.761Z,1.80
2023-05-17T20:47:25.148Z,1.60
2023-05-17T20:49:52.153Z,2.05
2023-05-17T20:52:31.352Z,1.60
2023-05-17T20:55:05.519Z,1.60
2023-05-17T20:57:32.516Z,2.20
2023-05-17T20:59:59.352Z,2.60
2023-05-17T21:02:26.399Z,2.10
2023-05-17T21:04:54.532Z,1.85
2023-05-17T21:07:22.360Z,2.10
2023-05-17T21:09:49.235Z,1.77
2023-05-17T21:12:16.050Z,2.10
2023-05-17T21:14:42.918Z,2.38
2023-05-17T21:17:10.340Z,3.22
2023-05-17T21:19:37.202Z,6.43
2023-05-17T21:22:04.254Z,4.75
2023-05-17T21:24:31.161Z,3.28
2023-05-17T21:26:57.991Z,2.17
2023-05-17T21:29:24.949Z,2.47
2023-05-17T21:31:51.837Z,2.08
2023-05-17T21:34:18.719Z,1.73
2023-05-17T21:36:45.646Z,2.10
2023-05-17T21:39:12.482Z,1.90
2023-05-17T21:41:39.301Z,1.67
2023-05-17T21:44:06.156Z,1.67
2023-05-17T21:46:33.253Z,2.08
2023-05-17T21:49:00.110Z,2.10
2023-05-17T21:51:27.004Z,1.83
2023-05-17T21:53:54.064Z,1.67
2023-05-17T21:56:21.947Z,1.95
2023-05-17T21:58:48.766Z,2.05
2023-05-17T22:01:17.313Z,2.50
2023-05-17T22:03:44.285Z,2.60
2023-05-17T22:06:11.710Z,2.92
2023-05-17T22:08:42.152Z,2.70
2023-05-17T22:11:09.398Z,2.38
2023-05-17T22:13:36.652Z,2.65
2023-05-17T22:16:03.603Z,2.15
2023-05-17T22:18:31.889Z,2.47
2023-05-17T22:20:59.436Z,2.47
2023-05-17T22:23:26.577Z,1.88
2023-05-17T22:25:53.556Z,2.13
2023-05-17T22:28:20.356Z,1.77
2023-05-17T22:30:47.201Z,2.28
2023-05-17T22:33:15.041Z,1.95
2023-05-17T22:35:41.955Z,2.30
2023-05-17T22:38:08.895Z,2.33
2023-05-17T22:40:35.920Z,2.33
2023-05-17T22:43:02.781Z,2.30
2023-05-17T22:45:33.269Z,1.95
2023-05-17T22:48:02.769Z,1.67
2023-05-17T22:50:30.537Z,1.92
2023-05-17T22:53:01.203Z,2.30
2023-05-17T22:55:28.374Z,1.60
2023-05-17T22:57:56.626Z,1.50
2023-05-17T23:00:25.416Z,1.90
2023-05-17T23:02:52.295Z,1.45
2023-05-17T23:05:19.256Z,1.88
2023-05-17T23:07:47.203Z,1.80
2023-05-17T23:10:15.361Z,1.77
2023-05-17T23:12:42.308Z,1.58
2023-05-17T23:15:10.396Z,1.70
2023-05-17T23:17:41.121Z,2.30
2023-05-17T23:20:10.239Z,2.00
2023-05-17T23:22:39.852Z,1.67
2023-05-17T23:25:07.175Z,1.90
2023-05-17T23:27:35.375Z,1.60
2023-05-17T23:30:03.154Z,1.52
2023-05-17T23:32:32.427Z,1.70
2023-05-17T23:35:03.550Z,2.28
2023-05-17T23:37:34.011Z,1.45
2023-05-17T23:40:01.411Z,1.88
2023-05-17T23:42:31.724Z,1.60
2023-05-17T23:45:00.524Z,1.60
2023-05-17T23:47:28.131Z,2.10
2023-05-17T23:49:55.850Z,1.58
2023-05-17T23:52:23.676Z,1.48
2023-05-17T23:54:50.617Z,1.75
2023-05-17T23:57:17.510Z,2.13
2023-05-17T23:59:44.362Z,1.58
